createdAt,value
2018-07-23T00:00:07.721Z,20.83
2018-07-23T00:02:36.834Z,20.17
2018-07-23T00:05:06.006Z,20.30
2018-07-23T00:07:35.144Z,20.70
2018-07-23T00:10:04.312Z,21.77
2018-07-23T00:12:33.551Z,22.40
2018-07-23T00:15:02.648Z,20.30
2018-07-23T00:17:31.769Z,23.13
2018-07-23T00:20:00.967Z,25.10
2018-07-23T00:22:30.129Z,23.77
2018-07-23T00:24:59.301Z,26.20
2018-07-23T00:27:28.434Z,26.87
2018-07-23T00:29:57.583Z,27.67
2018-07-23T00:32:26.729Z,25.63
2018-07-23T00:34:55.922Z,28.47
2018-07-23T00:37:25.083Z,27.63
2018-07-23T00:39:54.238Z,28.23
2018-07-23T00:42:23.412Z,28.37
2018-07-23T00:44:52.557Z,29.97
2018-07-23T00:47:21.717Z,30.30
2018-07-23T00:49:50.964Z,31.10
2018-07-23T00:52:20.162Z,31.27
2018-07-23T00:54:49.297Z,30.67
2018-07-23T00:57:18.653Z,30.67
2018-07-23T00:59:47.800Z,30.70
2018-07-23T01:02:16.999Z,31.33
2018-07-23T01:04:46.126Z,34.03
2018-07-23T01:07:15.298Z,34.70
2018-07-23T01:09:44.418Z,34.77
2018-07-23T01:12:18.545Z,36.40
2018-07-23T01:14:47.706Z,38.43
2018-07-23T01:17:16.842Z,38.00
2018-07-23T01:19:45.925Z,32.80
2018-07-23T01:22:15.089Z,23.47
2018-07-23T01:24:44.217Z,22.47
2018-07-23T01:27:13.394Z,22.37
2018-07-23T01:29:42.521Z,24.33
2018-07-23T01:32:11.770Z,25.67
2018-07-23T01:34:40.904Z,25.77
2018-07-23T01:37:12.974Z,21.67
2018-07-23T01:39:42.165Z,20.90
2018-07-23T01:42:11.488Z,19.57
2018-07-23T01:44:40.664Z,18.67
2018-07-23T01:47:10.728Z,17.23
2018-07-23T01:49:39.877Z,20.73
2018-07-23T01:52:09.028Z,21.53
2018-07-23T01:54:38.159Z,21.17
2018-07-23T01:57:07.313Z,20.27
2018-07-23T01:59:36.503Z,22.20
2018-07-23T02:02:05.596Z,21.20
2018-07-23T02:04:38.974Z,23.07
2018-07-23T02:07:08.505Z,21.93
2018-07-23T02:09:37.645Z,23.97
2018-07-23T02:12:06.862Z,24.70
2018-07-23T02:14:35.985Z,23.47
2018-07-23T02:17:05.301Z,24.33
2018-07-23T02:19:34.437Z,25.47
2018-07-23T02:22:03.608Z,25.97
2018-07-23T02:24:32.749Z,24.77
2018-07-23T02:27:01.866Z,26.00
2018-07-23T02:29:31.035Z,27.57
2018-07-23T02:32:00.178Z,27.07
2018-07-23T02:34:29.301Z,26.57
2018-07-23T02:36:58.429Z,26.30
2018-07-23T02:39:27.691Z,25.37
2018-07-23T02:41:56.825Z,25.23
2018-07-23T02:44:26.006Z,24.87
2018-07-23T02:46:55.166Z,24.30
2018-07-23T02:49:24.701Z,24.50
2018-07-23T02:51:53.913Z,25.67
2018-07-23T02:54:23.100Z,25.87
2018-07-23T02:56:52.196Z,23.60
2018-07-23T02:59:21.363Z,24.70
2018-07-23T03:01:50.516Z,25.43
2018-07-23T03:04:19.643Z,26.60
2018-07-23T03:06:48.770Z,27.50
2018-07-23T03:09:17.918Z,29.63
2018-07-23T03:11:47.077Z,27.87
2018-07-23T03:14:16.258Z,28.43
2018-07-23T03:16:45.467Z,28.47
2018-07-23T03:19:14.616Z,27.90
2018-07-23T03:21:43.878Z,29.57
2018-07-23T03:24:12.979Z,29.17
2018-07-23T03:26:42.149Z,28.83
2018-07-23T03:29:11.265Z,28.90
2018-07-23T03:31:40.458Z,27.00
2018-07-23T03:34:09.572Z,25.93
2018-07-23T03:36:38.737Z,28.17
2018-07-23T03:39:09.356Z,27.97
2018-07-23T03:41:38.625Z,28.47
2018-07-23T03:44:07.943Z,28.17
2018-07-23T03:46:37.135Z,27.60
2018-07-23T03:49:06.623Z,28.60
2018-07-23T03:51:35.824Z,28.03
2018-07-23T03:54:05.022Z,28.83
2018-07-23T03:56:34.276Z,27.03
2018-07-23T03:59:03.440Z,28.93
2018-07-23T04:01:32.577Z,27.40
2018-07-23T04:04:01.760Z,29.20
2018-07-23T04:06:30.887Z,29.13
2018-07-23T04:09:00.054Z,30.43
2018-07-23T04:11:29.920Z,28.83
2018-07-23T04:13:59.031Z,31.07
2018-07-23T04:16:29.175Z,30.13
2018-07-23T04:18:58.370Z,30.00
2018-07-23T04:21:27.940Z,30.80
2018-07-23T04:23:57.134Z,29.57
2018-07-23T04:26:26.329Z,30.33
2018-07-23T04:28:56.664Z,29.77
2018-07-23T04:31:25.903Z,31.40
2018-07-23T04:33:55.055Z,29.10
2018-07-23T04:36:24.276Z,30.63
2018-07-23T04:38:54.056Z,30.93
2018-07-23T04:41:23.233Z,31.93
2018-07-23T04:43:52.934Z,31.77
2018-07-23T04:46:22.135Z,30.97
2018-07-23T04:48:51.322Z,28.80
2018-07-23T04:51:20.516Z,29.73
2018-07-23T04:53:49.641Z,29.40
2018-07-23T04:56:18.865Z,30.33
2018-07-23T04:58:48.061Z,29.87
2018-07-23T05:01:17.305Z,30.00
2018-07-23T05:03:46.446Z,30.37
2018-07-23T05:06:16.312Z,29.97
2018-07-23T05:08:45.520Z,29.20
2018-07-23T05:11:14.665Z,27.80
2018-07-23T05:13:43.865Z,26.97
2018-07-23T05:16:13.029Z,29.33
2018-07-23T05:18:42.271Z,29.70
2018-07-23T05:21:12.191Z,29.90
2018-07-23T05:23:41.483Z,29.20
2018-07-23T05:26:10.692Z,29.87
2018-07-23T05:28:39.845Z,29.60
2018-07-23T05:31:08.992Z,29.40
2018-07-23T05:33:38.135Z,29.30
2018-07-23T05:36:07.456Z,28.07
2018-07-23T05:38:36.681Z,29.70
2018-07-23T05:41:06.380Z,31.97
2018-07-23T05:43:35.550Z,29.17
2018-07-23T05:46:04.807Z,30.60
2018-07-23T05:48:34.085Z,28.70
2018-07-23T05:51:04.225Z,28.87
2018-07-23T05:53:34.773Z,30.67
2018-07-23T05:56:04.237Z,30.37
2018-07-23T05:58:35.061Z,29.30
2018-07-23T06:01:04.282Z,28.87
2018-07-23T06:03:34.801Z,30.50
2018-07-23T06:06:03.993Z,30.87
2018-07-23T06:08:33.194Z,30.17
2018-07-23T06:11:03.339Z,26.13
2018-07-23T06:13:32.549Z,27.23
2018-07-23T06:16:01.691Z,27.03
2018-07-23T06:18:31.040Z,28.90
2018-07-23T06:21:01.488Z,31.83
2018-07-23T06:23:31.350Z,29.30
2018-07-23T06:26:00.612Z,28.57
2018-07-23T06:28:29.999Z,30.13
2018-07-23T06:30:59.281Z,30.20
2018-07-23T06:33:29.309Z,31.00
2018-07-23T06:35:58.477Z,30.53
2018-07-23T06:38:27.667Z,28.07
2018-07-23T06:40:57.520Z,28.47
2018-07-23T06:43:27.412Z,28.80
2018-07-23T06:45:56.837Z,28.50
2018-07-23T06:48:26.082Z,28.00
2018-07-23T06:50:55.368Z,33.03
2018-07-23T06:53:24.508Z,28.67
2018-07-23T06:55:53.678Z,30.63
2018-07-23T06:58:22.931Z,32.23
2018-07-23T07:00:54.642Z,31.93
2018-07-23T07:03:26.175Z,32.20
2018-07-23T07:05:57.798Z,30.93
2018-07-23T07:08:26.982Z,31.03
2018-07-23T07:10:56.399Z,33.77
2018-07-23T07:13:25.553Z,36.93
2018-07-23T07:15:54.650Z,34.50
2018-07-23T07:18:23.793Z,32.07
2018-07-23T07:20:52.999Z,31.17
2018-07-23T07:23:22.144Z,30.67
2018-07-23T07:25:51.049Z,30.63
2018-07-23T07:28:20.098Z,32.80
2018-07-23T07:30:49.309Z,31.73
2018-07-23T07:33:18.506Z,28.60
2018-07-23T07:35:47.978Z,30.63
2018-07-23T07:38:17.239Z,30.73
2018-07-23T07:40:46.332Z,33.23
2018-07-23T07:43:15.206Z,33.00
2018-07-23T07:45:44.247Z,32.30
2018-07-23T07:48:13.436Z,29.10
2018-07-23T07:50:42.573Z,31.23
2018-07-23T07:53:11.749Z,29.47
2018-07-23T07:55:40.890Z,33.13
2018-07-23T07:58:10.065Z,30.47
2018-07-23T08:00:39.854Z,32.70
2018-07-23T08:03:09.582Z,30.97
2018-07-23T08:05:38.724Z,29.73
2018-07-23T08:08:08.085Z,30.67
2018-07-23T08:10:37.255Z,30.57
2018-07-23T08:13:06.509Z,30.00
2018-07-23T08:15:36.167Z,28.33
2018-07-23T08:18:05.444Z,29.83
2018-07-23T08:20:34.337Z,25.83
2018-07-23T08:23:03.585Z,26.80
2018-07-23T08:25:33.739Z,27.10
2018-07-23T08:28:02.982Z,26.15
2018-07-23T08:30:32.175Z,25.93
2018-07-23T08:33:02.223Z,25.55
2018-07-23T08:35:31.378Z,27.42
2018-07-23T08:38:00.578Z,24.60
2018-07-23T08:40:29.837Z,23.30
2018-07-23T08:42:59.086Z,24.55
2018-07-23T08:45:28.324Z,27.42
2018-07-23T08:47:57.590Z,24.23
2018-07-23T08:50:26.861Z,22.83
2018-07-23T08:52:56.122Z,24.83
2018-07-23T08:55:25.388Z,23.43
2018-07-23T08:57:54.631Z,26.93
2018-07-23T09:00:23.800Z,24.20
2018-07-23T09:02:53.009Z,22.93
2018-07-23T09:05:22.228Z,23.93
2018-07-23T09:07:51.478Z,24.63
2018-07-23T09:10:20.690Z,28.63
2018-07-23T09:12:49.931Z,25.00
2018-07-23T09:15:19.124Z,29.57
2018-07-23T09:17:48.365Z,27.37
2018-07-23T09:20:17.572Z,28.00
2018-07-23T09:22:46.782Z,27.23
2018-07-23T09:25:15.946Z,26.23
2018-07-23T09:27:45.125Z,27.47
2018-07-23T09:30:19.460Z,27.67
2018-07-23T09:32:48.626Z,27.33
2018-07-23T09:35:17.829Z,24.63
2018-07-23T09:37:47.166Z,25.03
2018-07-23T09:40:16.031Z,23.07
2018-07-23T09:42:45.686Z,22.17
2018-07-23T09:45:14.909Z,25.17
2018-07-23T09:47:44.062Z,23.63
2018-07-23T09:50:13.256Z,23.17
2018-07-23T09:52:42.838Z,21.63
2018-07-23T09:55:12.385Z,20.63
2018-07-23T09:57:41.708Z,20.03
2018-07-23T10:00:11.143Z,18.90
2018-07-23T10:02:42.275Z,19.07
2018-07-23T10:05:11.466Z,18.47
2018-07-23T10:07:40.718Z,16.30
2018-07-23T10:10:09.963Z,15.93
2018-07-23T10:12:39.174Z,21.67
2018-07-23T10:15:08.366Z,16.13
2018-07-23T10:17:37.578Z,16.53
2018-07-23T10:20:07.017Z,16.13
2018-07-23T10:22:36.237Z,17.33
2018-07-23T10:25:05.568Z,15.93
2018-07-23T10:27:34.807Z,15.47
2018-07-23T10:30:04.970Z,15.67
2018-07-23T10:32:34.505Z,15.27
2018-07-23T10:35:03.952Z,14.63
2018-07-23T10:37:33.029Z,15.53
2018-07-23T10:40:02.234Z,14.33
2018-07-23T10:42:31.435Z,13.60
2018-07-23T10:45:00.676Z,13.13
2018-07-23T10:47:29.907Z,14.00
2018-07-23T10:49:59.109Z,13.33
2018-07-23T10:52:28.327Z,14.10
2018-07-23T10:54:57.578Z,16.83
2018-07-23T10:57:26.865Z,13.53
2018-07-23T10:59:56.087Z,13.10
2018-07-23T11:02:25.354Z,12.10
2018-07-23T11:04:54.562Z,12.50
2018-07-23T11:07:23.820Z,13.00
2018-07-23T11:09:52.978Z,12.30
2018-07-23T11:12:22.220Z,12.23
2018-07-23T11:14:51.475Z,10.93
2018-07-23T11:17:20.384Z,11.67
2018-07-23T11:19:49.632Z,11.67
2018-07-23T11:22:18.838Z,12.23
2018-07-23T11:24:48.074Z,11.17
2018-07-23T11:27:17.250Z,11.53
2018-07-23T11:29:46.438Z,11.33
2018-07-23T11:32:15.664Z,10.70
2018-07-23T11:34:44.884Z,11.10
2018-07-23T11:37:14.181Z,9.77
2018-07-23T11:39:43.484Z,10.70
2018-07-23T11:42:12.686Z,10.33
2018-07-23T11:44:41.935Z,9.23
2018-07-23T11:47:11.380Z,9.97
2018-07-23T11:49:40.530Z,10.43
2018-07-23T11:52:14.362Z,10.53
2018-07-23T11:54:38.614Z,11.13
2018-07-23T11:57:07.716Z,11.97
2018-07-23T11:59:37.039Z,11.33
2018-07-23T12:02:07.092Z,11.70
2018-07-23T12:04:36.516Z,9.90
2018-07-23T12:07:06.309Z,10.30
2018-07-23T12:09:35.517Z,10.83
2018-07-23T12:12:04.732Z,9.93
2018-07-23T12:14:33.966Z,10.57
2018-07-23T12:17:03.265Z,10.70
2018-07-23T12:19:32.386Z,10.53
2018-07-23T12:22:01.558Z,10.80
2018-07-23T12:24:30.498Z,10.40
2018-07-23T12:26:59.650Z,9.70
2018-07-23T12:29:28.893Z,10.00
2018-07-23T12:31:58.140Z,9.10
2018-07-23T12:34:27.367Z,9.60
2018-07-23T12:36:56.630Z,9.40
2018-07-23T12:39:25.853Z,9.50
2018-07-23T12:41:55.059Z,9.10
2018-07-23T12:44:24.247Z,9.67
2018-07-23T12:46:53.432Z,9.23
2018-07-23T12:49:22.633Z,11.57
2018-07-23T12:51:51.850Z,9.43
2018-07-23T12:54:20.720Z,8.45
2018-07-23T12:56:49.837Z,8.75
2018-07-23T12:59:19.078Z,23.12
2018-07-23T13:01:48.317Z,10.53
2018-07-23T13:04:17.536Z,10.70
2018-07-23T13:06:46.859Z,9.38
2018-07-23T13:09:16.311Z,10.72
2018-07-23T13:11:45.471Z,8.03
2018-07-23T13:14:14.719Z,9.30
2018-07-23T13:16:43.948Z,8.15
2018-07-23T13:19:13.354Z,8.45
2018-07-23T13:21:42.596Z,9.70
2018-07-23T13:24:11.819Z,8.65
2018-07-23T13:26:41.053Z,8.53
2018-07-23T13:29:10.281Z,7.77
2018-07-23T13:31:40.271Z,8.38
2018-07-23T13:34:09.513Z,7.42
2018-07-23T13:36:38.701Z,8.13
2018-07-23T13:39:10.026Z,7.72
2018-07-23T13:41:39.224Z,7.80
2018-07-23T13:44:09.430Z,7.70
2018-07-23T13:46:38.952Z,7.28
2018-07-23T13:49:08.133Z,7.62
2018-07-23T13:51:37.352Z,8.50
2018-07-23T13:54:06.591Z,7.72
2018-07-23T13:56:35.835Z,7.97
2018-07-23T13:59:05.059Z,7.95
2018-07-23T14:01:34.292Z,7.85
2018-07-23T14:04:03.438Z,8.08
2018-07-23T14:06:32.673Z,8.18
2018-07-23T14:09:01.869Z,8.53
2018-07-23T14:11:31.068Z,8.33
2018-07-23T14:14:00.286Z,9.35
2018-07-23T14:16:29.454Z,8.88
2018-07-23T14:18:58.630Z,8.73
2018-07-23T14:21:27.837Z,9.30
2018-07-23T14:23:57.021Z,8.98
2018-07-23T14:26:26.251Z,8.98
2018-07-23T14:28:55.449Z,9.33
2018-07-23T14:31:24.653Z,8.45
2018-07-23T14:33:53.838Z,8.70
2018-07-23T14:36:23.085Z,8.85
2018-07-23T14:38:52.434Z,9.35
2018-07-23T14:41:21.633Z,8.60
2018-07-23T14:43:51.452Z,9.05
2018-07-23T14:46:20.554Z,9.40
2018-07-23T14:48:50.053Z,8.70
2018-07-23T14:51:19.191Z,9.58
2018-07-23T14:53:48.142Z,9.08
2018-07-23T14:56:17.174Z,10.35
2018-07-23T14:58:46.358Z,9.80
2018-07-23T15:01:15.522Z,9.40
2018-07-23T15:03:44.705Z,10.23
2018-07-23T15:06:14.035Z,9.83
2018-07-23T15:08:43.206Z,9.60
2018-07-23T15:11:12.426Z,10.28
2018-07-23T15:13:42.335Z,9.95
2018-07-23T15:16:11.446Z,10.15
2018-07-23T15:18:40.614Z,10.32
2018-07-23T15:21:09.832Z,10.20
2018-07-23T15:23:39.028Z,10.50
2018-07-23T15:26:08.225Z,10.13
2018-07-23T15:28:37.405Z,10.13
2018-07-23T15:31:06.645Z,10.63
2018-07-23T15:33:35.840Z,10.32
2018-07-23T15:36:06.072Z,10.48
2018-07-23T15:38:35.257Z,10.10
2018-07-23T15:41:05.875Z,10.17
2018-07-23T15:43:35.045Z,10.33
2018-07-23T15:46:04.304Z,10.25
2018-07-23T15:48:33.518Z,9.23
2018-07-23T15:51:03.309Z,9.33
2018-07-23T15:53:32.670Z,9.88
2018-07-23T15:56:03.171Z,9.15
2018-07-23T15:58:32.417Z,10.08
2018-07-23T16:01:01.657Z,9.70
2018-07-23T16:03:30.866Z,8.98
2018-07-23T16:06:00.049Z,8.73
2018-07-23T16:08:29.247Z,9.08
2018-07-23T16:10:58.418Z,10.10
2018-07-23T16:13:27.578Z,8.90
2018-07-23T16:15:57.493Z,9.03
2018-07-23T16:18:26.658Z,8.83
2018-07-23T16:20:55.842Z,8.88
2018-07-23T16:23:25.094Z,7.87
2018-07-23T16:25:54.531Z,8.80
2018-07-23T16:28:23.898Z,8.45
2018-07-23T16:30:53.360Z,8.65
2018-07-23T16:33:22.529Z,8.60
2018-07-23T16:35:51.713Z,8.68
2018-07-23T16:38:20.954Z,8.30
2018-07-23T16:40:50.213Z,7.95
2018-07-23T16:43:19.742Z,8.83
2018-07-23T16:45:48.925Z,7.93
2018-07-23T16:48:18.082Z,8.75
2018-07-23T16:50:47.400Z,8.48
2018-07-23T16:53:16.562Z,8.65
2018-07-23T16:55:45.886Z,8.05
2018-07-23T16:58:15.116Z,7.83
2018-07-23T17:00:44.442Z,8.25
2018-07-23T17:03:13.785Z,8.13
2018-07-23T17:05:47.592Z,8.35
2018-07-23T17:08:17.329Z,8.75
2018-07-23T17:10:46.622Z,8.27
2018-07-23T17:13:15.783Z,8.38
2018-07-23T17:15:45.061Z,8.08
2018-07-23T17:18:14.284Z,8.28
2018-07-23T17:20:44.165Z,8.43
2018-07-23T17:23:13.548Z,7.87
2018-07-23T17:25:42.732Z,8.57
2018-07-23T17:28:12.033Z,9.25
2018-07-23T17:30:42.257Z,7.97
2018-07-23T17:33:11.413Z,7.95
2018-07-23T17:35:40.728Z,8.03
2018-07-23T17:38:09.835Z,8.43
2018-07-23T17:40:39.087Z,8.78
2018-07-23T17:43:08.259Z,8.18
2018-07-23T17:45:37.542Z,8.95
2018-07-23T17:48:06.786Z,7.85
2018-07-23T17:50:35.990Z,7.97
2018-07-23T17:53:05.586Z,8.03
2018-07-23T17:55:34.860Z,7.78
2018-07-23T17:58:04.116Z,8.20
2018-07-23T18:00:33.344Z,8.23
2018-07-23T18:03:02.538Z,8.27
2018-07-23T18:05:31.756Z,8.10
2018-07-23T18:08:01.013Z,8.85
2018-07-23T18:10:30.197Z,8.83
2018-07-23T18:12:59.608Z,8.87
2018-07-23T18:15:28.998Z,9.25
2018-07-23T18:17:58.657Z,8.85
2018-07-23T18:20:27.930Z,9.70
2018-07-23T18:22:58.472Z,8.37
2018-07-23T18:25:27.665Z,8.68
2018-07-23T18:27:56.859Z,8.63
2018-07-23T18:30:26.189Z,8.77
2018-07-23T18:33:01.819Z,8.65
2018-07-23T18:35:31.029Z,8.47
2018-07-23T18:38:00.663Z,8.60
2018-07-23T18:40:29.878Z,8.75
2018-07-23T18:42:58.898Z,9.05
2018-07-23T18:45:27.966Z,8.37
2018-07-23T18:47:57.209Z,8.70
2018-07-23T18:50:26.379Z,8.43
2018-07-23T18:52:55.651Z,9.03
2018-07-23T18:55:25.597Z,8.57
2018-07-23T18:57:54.875Z,8.50
2018-07-23T19:00:24.071Z,9.07
2018-07-23T19:02:53.289Z,12.00
2018-07-23T19:05:22.412Z,9.90
2018-07-23T19:07:51.602Z,9.20
2018-07-23T19:10:20.859Z,9.53
2018-07-23T19:12:50.022Z,8.55
2018-07-23T19:15:21.752Z,8.28
2018-07-23T19:17:50.925Z,8.10
2018-07-23T19:20:20.126Z,7.92
2018-07-23T19:22:49.214Z,7.40
2018-07-23T19:25:18.322Z,8.23
2018-07-23T19:27:47.528Z,8.33
2018-07-23T19:30:16.813Z,8.18
2018-07-23T19:32:46.694Z,8.58
2018-07-23T19:35:15.993Z,8.28
2018-07-23T19:37:45.236Z,8.23
2018-07-23T19:40:14.401Z,9.23
2018-07-23T19:42:43.613Z,8.63
2018-07-23T19:45:12.856Z,9.30
2018-07-23T19:47:42.095Z,9.33
2018-07-23T19:50:11.195Z,9.97
2018-07-23T19:52:40.426Z,10.57
2018-07-23T19:55:09.653Z,9.53
2018-07-23T19:57:38.792Z,9.50
2018-07-23T20:00:08.855Z,9.57
2018-07-23T20:02:37.941Z,9.67
2018-07-23T20:05:07.165Z,9.50
2018-07-23T20:07:36.333Z,9.60
2018-07-23T20:10:05.979Z,9.70
2018-07-23T20:12:36.132Z,9.00
2018-07-23T20:15:06.248Z,10.00
2018-07-23T20:17:36.072Z,9.83
2018-07-23T20:20:06.170Z,9.63
2018-07-23T20:22:35.334Z,9.93
2018-07-23T20:25:04.605Z,9.93
2018-07-23T20:27:33.929Z,9.97
2018-07-23T20:30:03.097Z,9.35
2018-07-23T20:32:32.399Z,10.03
2018-07-23T20:35:01.658Z,9.63
2018-07-23T20:37:30.970Z,9.70
2018-07-23T20:39:59.976Z,9.45
2018-07-23T20:42:30.604Z,9.75
2018-07-23T20:44:59.820Z,9.50
2018-07-23T20:47:29.085Z,9.33
2018-07-23T20:49:58.329Z,9.80
2018-07-23T20:52:27.502Z,9.78
2018-07-23T20:54:56.733Z,9.00
2018-07-23T20:57:25.931Z,9.43
2018-07-23T20:59:56.170Z,9.73
2018-07-23T21:02:25.758Z,10.08
2018-07-23T21:04:54.990Z,13.07
2018-07-23T21:07:24.271Z,9.43
2018-07-23T21:09:53.440Z,9.77
2018-07-23T21:12:22.587Z,9.40
2018-07-23T21:14:51.814Z,10.73
2018-07-23T21:17:20.918Z,10.20
2018-07-23T21:19:50.172Z,9.87
2018-07-23T21:22:19.498Z,9.28
2018-07-23T21:24:48.670Z,9.23
2018-07-23T21:27:18.550Z,10.10
2018-07-23T21:29:48.022Z,9.10
2018-07-23T21:32:17.222Z,9.37
2018-07-23T21:34:46.435Z,10.50
2018-07-23T21:37:16.623Z,10.30
2018-07-23T21:39:45.846Z,10.23
2018-07-23T21:42:15.104Z,13.10
2018-07-23T21:44:44.303Z,10.23
2018-07-23T21:47:13.579Z,10.13
2018-07-23T21:49:42.778Z,9.78
2018-07-23T21:52:12.105Z,9.07
2018-07-23T21:54:41.321Z,9.90
2018-07-23T21:57:10.581Z,10.13
2018-07-23T21:59:40.254Z,9.90
2018-07-23T22:02:09.169Z,10.83
2018-07-23T22:04:39.075Z,10.70
2018-07-23T22:07:08.311Z,9.70
2018-07-23T22:09:37.629Z,9.90
2018-07-23T22:12:06.886Z,10.67
2018-07-23T22:14:36.045Z,10.37
2018-07-23T22:17:05.306Z,9.87
2018-07-23T22:19:34.474Z,9.63
2018-07-23T22:22:03.697Z,11.13
2018-07-23T22:24:33.120Z,10.67
2018-07-23T22:27:02.263Z,11.43
2018-07-23T22:29:31.398Z,10.40
2018-07-23T22:32:00.575Z,11.60
2018-07-23T22:34:29.729Z,11.07
2018-07-23T22:36:58.878Z,11.33
2018-07-23T22:39:28.050Z,11.50
2018-07-23T22:41:57.192Z,12.03
2018-07-23T22:44:26.345Z,10.73
2018-07-23T22:46:55.596Z,11.40
2018-07-23T22:49:24.705Z,11.60
2018-07-23T22:51:53.855Z,11.27
2018-07-23T22:54:22.986Z,11.10
2018-07-23T22:56:52.171Z,11.13
2018-07-23T22:59:21.425Z,11.37
2018-07-23T23:01:50.533Z,11.50
2018-07-23T23:04:19.828Z,11.50
2018-07-23T23:06:49.184Z,10.87
2018-07-23T23:09:18.499Z,11.40
2018-07-23T23:11:47.777Z,10.27
2018-07-23T23:14:17.058Z,11.63
2018-07-23T23:16:46.289Z,10.43
2018-07-23T23:19:15.468Z,11.73
2018-07-23T23:21:44.628Z,11.23
2018-07-23T23:24:13.913Z,11.40
2018-07-23T23:26:43.086Z,11.00
2018-07-23T23:29:12.183Z,11.20
2018-07-23T23:31:41.361Z,11.07
2018-07-23T23:34:10.565Z,11.07
2018-07-23T23:36:39.697Z,10.80
2018-07-23T23:39:09.508Z,10.90
2018-07-23T23:41:38.605Z,12.07
2018-07-23T23:44:07.837Z,11.70
2018-07-23T23:46:37.025Z,10.50
2018-07-23T23:49:06.337Z,11.80
2018-07-23T23:51:35.460Z,11.37
2018-07-23T23:54:04.633Z,11.73
2018-07-23T23:56:33.786Z,11.13
2018-07-23T23:59:02.950Z,11.60
